Flight Track Log - Related Links

Times and Time Zones

All times are in EDT time to prevent confusion due to time zone crossing. See the EJA941 flight status page for this flight to view local times or setup timezone preferences in your user account.

Time Position Orientation Groundspeed Altitude Reporting Facility
EDT Latitude Longitude Course Direction KTS MPH feet Rate Location/Type
Fri 05:01:03 PM 38.5667 -90.0833 104° East 220 253 2,500  Level Gateway (St. Louis) TRACON
Fri 05:02:10 PM 38.5636 -89.9986 93° East 231 266 4,600 2,215 Climbing Kansas City Center
Fri 05:03:13 PM 38.5703 -89.8978 85° East 264 304 7,300 2,806 Climbing Kansas City Center
Fri 05:04:14 PM 38.5725 -89.7869 88° East 296 341 10,400 2,710 Climbing Kansas City Center
Fri 05:05:17 PM 38.5400 -89.6497 107° East 334 384 12,900 2,177 Climbing Kansas City Center
Fri 05:06:00 PM 38.6508 -89.4560 104° East  Level Estimated
Fri 05:06:18 PM 38.5094 -89.5253 107° East 363 418 14,900  Level Kansas City Center
Fri 05:07:22 PM 38.4761 -89.3886 107° East 373 429 17,100 2,016 Climbing Kansas City Center
Fri 05:08:23 PM 38.4439 -89.2589 108° East 382 440 19,100 1,935 Climbing Kansas City Center
Fri 05:09:26 PM 38.4097 -89.1272 108° East 390 449 21,100 1,984 Climbing Kansas City Center
Fri 05:10:27 PM 38.3672 -88.9864 111° Southeast 395 455 23,200 1,623 Climbing Kansas City Center
Fri 05:11:28 PM 38.3250 -88.8419 110° East 419 482 24,400 1,122 Climbing Kansas City Center
Fri 05:12:30 PM 38.2822 -88.6903 110° East 439 505 25,500 1,056 Climbing Kansas City Center
Fri 05:13:33 PM 38.2542 -88.5214 102° East 477 549 26,600 1,087 Climbing Kansas City Center
Fri 05:14:37 PM 38.2756 -88.3472 81° East 494 568 27,800 1,113 Climbing Kansas City Center
Fri 05:15:37 PM 38.2994 -88.1675 80° East 509 586 28,900 1,255 Climbing Kansas City Center
Fri 05:16:27 PM 38.3181 -88.0244 81° East 515 593 30,100 1,607 Climbing Indianapolis Center
Fri 05:17:29 PM 38.3458 -87.8061 81° East 517 595 31,900 1,403 Climbing Indianapolis Center
Fri 05:18:31 PM 38.3678 -87.6211 81° East 525 604 33,000 532 Climbing Indianapolis Center
Fri 05:19:33 PM 38.3917 -87.4272 81° East 545 627 33,000  Level Indianapolis Center
Fri 05:20:35 PM 38.4161 -87.2258 81° East 564 649 33,000 -677 Level Indianapolis Center
Fri 05:21:37 PM 38.4364 -87.0181 83° East 564 649 31,600 -1,839 Descending Indianapolis Center
Fri 05:22:39 PM 38.4269 -86.8217 93° East 545 627 29,200 -2,352 Descending Indianapolis Center
Fri 05:23:42 PM 38.4306 -86.6247 89° East 553 636 26,700 -2,448 Descending Indianapolis Center
Fri 05:24:44 PM 38.4594 -86.4375 79° East 540 621 24,100 -2,516 Descending Indianapolis Center
Fri 05:25:46 PM 38.4903 -86.2583 78° East 522 601 21,500 -2,177 Descending Indianapolis Center
Fri 05:26:48 PM 38.5286 -86.0931 73° East 487 560 19,600 -1,984 Descending Indianapolis Center
Fri 05:27:50 PM 38.5722 -85.9000 74° East 473 544 17,400 -2,032 Descending Indianapolis Center
Fri 05:28:52 PM 38.6050 -85.7500 74° East 442 509 15,400 -1,839 Descending Indianapolis Center
Fri 05:29:54 PM 38.6364 -85.6119 74° East 446 513 13,600 -1,645 Descending Indianapolis Center
Fri 05:30:56 PM 38.6792 -85.4406 72° East 429 494 12,000 -968 Descending Indianapolis Center
Fri 05:31:58 PM 38.7358 -85.3200 59° Northeast 404 465 11,600 -726 Descending Indianapolis Center
Fri 05:33:00 PM 38.7958 -85.1983 58° Northeast 405 466 10,500 -774 Descending Indianapolis Center
Fri 05:34:02 PM 38.8592 -85.0731 57° Northeast 417 480 10,000 -242 Descending Indianapolis Center
Fri 05:35:04 PM 38.9181 -84.9525 58° Northeast 406 467 10,000 -194 Level Indianapolis Center
Fri 05:36:06 PM 38.9717 -84.8456 57° Northeast 348 400 9,600 -1,210 Descending Indianapolis Center
Fri 05:37:08 PM 39.0281 -84.7431 55° Northeast 295 339 7,500 -1,935 Descending Indianapolis Center
Fri 05:38:10 PM 39.1000 -84.6833 33° Northeast 284 327 5,600 -1,818 Descending Cincinnati TRACON
Fri 05:38:47 PM 39.1333 -84.6333 49° Northeast 283 326 4,500 -1,000 Descending Cincinnati TRACON
Fri 05:39:58 PM 39.1833 -84.5500 52° Northeast 248 285 3,800 -870 Descending Cincinnati TRACON
Fri 05:40:58 PM 39.2000 -84.4667 76° East 243 280 2,600 -857 Descending Cincinnati TRACON
Fri 05:42:11 PM 39.1667 -84.3833 117° Southeast 160 184 1,900 -691 Descending Cincinnati TRACON
Fri 05:43:17 PM 39.1333 -84.4000 201° Southwest 127 146 1,000 -818 Descending Cincinnati TRACON
Fri 05:45:00 PM 39.1000 -84.4167 137° Southeast  Level FlightAware Approximate
Fri 05:52:00 PM 39.1033 -84.4186 137° Southeast  Level Estimated
Fri 05:53:00 PM 39.1000 -84.4167 137° Southeast  Level FlightAware Approximate
Fri 05:54:00 PM 39.1033 -84.4186 137° Southeast  Level Estimated
Fri 05:55:00 PM 39.1000 -84.4167 137° Southeast  Level FlightAware Approximate
Fri 05:56:00 PM 39.1033 -84.4186 137° Southeast  Level Estimated
Fri 05:57:00 PM 39.1000 -84.4167 137° Southeast  Level FlightAware Approximate
Fri 05:58:00 PM 39.1033 -84.4186 137° Southeast  Level Estimated

Login

Don't have an account? Register now (free) for customized features, flight alerts, and more!